createdAt,value
2019-01-21T00:01:36.838Z,29.70
2019-01-21T00:04:27.252Z,31.90
2019-01-21T00:07:17.284Z,30.73
2019-01-21T00:10:07.421Z,29.33
2019-01-21T00:12:57.620Z,29.50
2019-01-21T00:15:48.136Z,29.30
2019-01-21T00:18:37.999Z,30.23
2019-01-21T00:21:27.840Z,28.20
2019-01-21T00:24:17.728Z,27.57
2019-01-21T00:27:08.094Z,32.63
2019-01-21T00:29:58.333Z,28.70
2019-01-21T00:32:47.947Z,26.17
2019-01-21T00:35:37.839Z,29.93
2019-01-21T00:38:27.891Z,29.17
2019-01-21T00:41:18.071Z,29.73
2019-01-21T00:44:08.154Z,30.33
2019-01-21T00:46:58.360Z,28.40
2019-01-21T00:49:48.247Z,31.27
2019-01-21T00:52:38.604Z,28.47
2019-01-21T00:55:28.972Z,27.50
2019-01-21T00:58:19.180Z,30.37
2019-01-21T01:01:09.111Z,30.83
2019-01-21T01:03:59.171Z,28.37
2019-01-21T01:06:48.899Z,32.63
2019-01-21T01:09:38.587Z,29.30
2019-01-21T01:12:29.189Z,29.07
2019-01-21T01:15:19.636Z,28.60
2019-01-21T01:18:09.572Z,31.07
2019-01-21T01:20:59.339Z,28.50
2019-01-21T01:23:49.350Z,29.77
2019-01-21T01:26:38.905Z,28.87
2019-01-21T01:29:28.687Z,29.17
2019-01-21T01:32:18.809Z,29.97
2019-01-21T01:35:09.947Z,28.60
2019-01-21T01:38:00.011Z,26.97
2019-01-21T01:40:49.941Z,27.87
2019-01-21T01:43:40.256Z,25.90
2019-01-21T01:46:30.175Z,30.50
2019-01-21T01:49:20.659Z,28.40
2019-01-21T01:52:10.920Z,26.37
2019-01-21T01:55:00.866Z,30.03
2019-01-21T01:57:53.983Z,27.93
2019-01-21T02:00:43.717Z,29.07
2019-01-21T02:03:33.664Z,27.10
2019-01-21T02:06:23.916Z,27.53
2019-01-21T02:09:14.189Z,28.03
2019-01-21T02:12:04.270Z,28.20
2019-01-21T02:14:53.917Z,29.03
2019-01-21T02:17:43.512Z,27.53
2019-01-21T02:20:33.449Z,29.27
2019-01-21T02:23:30.034Z,26.93
2019-01-21T02:26:23.532Z,27.30
2019-01-21T02:29:30.974Z,27.73
2019-01-21T02:33:13.993Z,28.30
2019-01-21T02:36:31.806Z,27.87
2019-01-21T02:40:24.347Z,26.67
2019-01-21T02:43:57.409Z,26.57
2019-01-21T02:47:42.898Z,27.13
2019-01-21T02:51:12.115Z,26.30
2019-01-21T02:55:01.768Z,28.50
2019-01-21T02:58:38.563Z,27.20
2019-01-21T03:02:34.300Z,28.50
2019-01-21T03:06:00.601Z,27.63
2019-01-21T03:09:44.070Z,27.53
2019-01-21T03:13:33.412Z,27.50
2019-01-21T03:16:50.118Z,27.13
2019-01-21T03:20:17.589Z,25.53
2019-01-21T03:24:24.577Z,26.13
2019-01-21T03:28:15.035Z,29.90
2019-01-21T03:31:40.686Z,27.67
2019-01-21T03:35:22.328Z,28.50
2019-01-21T03:39:05.055Z,27.90
2019-01-21T03:42:31.142Z,28.43
2019-01-21T03:46:21.335Z,27.93
2019-01-21T03:49:27.833Z,28.13
2019-01-21T03:52:44.519Z,27.37
2019-01-21T03:55:35.291Z,29.47
2019-01-21T03:59:09.765Z,31.87
2019-01-21T04:02:44.481Z,29.33
2019-01-21T04:06:05.419Z,32.40
2019-01-21T04:10:02.353Z,32.37
2019-01-21T04:13:24.274Z,35.27
2019-01-21T04:16:43.113Z,38.90
2019-01-21T04:19:51.240Z,39.90
2019-01-21T04:26:57.949Z,33.13
2019-01-21T04:30:42.368Z,36.23
2019-01-21T04:34:41.611Z,34.07
2019-01-21T04:38:37.649Z,36.97
2019-01-21T04:42:06.035Z,32.93
2019-01-21T04:45:45.094Z,36.73
2019-01-21T04:49:48.796Z,35.63
2019-01-21T04:53:05.212Z,38.67
2019-01-21T04:56:52.203Z,36.00
2019-01-21T05:00:32.577Z,40.60
2019-01-21T05:04:10.356Z,35.17
2019-01-21T05:07:48.857Z,34.03
2019-01-21T05:11:29.600Z,34.90
2019-01-21T05:14:56.722Z,33.90
2019-01-21T05:18:41.256Z,36.60
2019-01-21T05:22:25.291Z,34.40
2019-01-21T05:26:05.721Z,35.23
2019-01-21T05:29:40.252Z,33.70
2019-01-21T05:33:42.551Z,35.30
2019-01-21T05:37:16.655Z,32.20
2019-01-21T05:40:46.630Z,32.13
2019-01-21T05:44:35.566Z,34.27
2019-01-21T05:48:18.038Z,39.97
2019-01-21T05:52:01.866Z,37.03
2019-01-21T05:55:07.335Z,34.93
2019-01-21T05:58:34.650Z,32.17
2019-01-21T06:02:30.131Z,36.97
2019-01-21T06:06:18.956Z,32.80
2019-01-21T06:10:16.166Z,36.83
2019-01-21T06:13:48.580Z,42.67
2019-01-21T06:17:23.462Z,36.20
2019-01-21T06:20:54.612Z,37.83
2019-01-21T06:24:51.821Z,36.43
2019-01-21T06:28:36.858Z,34.67
2019-01-21T06:32:15.907Z,36.23
2019-01-21T06:35:46.331Z,33.80
2019-01-21T06:39:29.736Z,35.37
2019-01-21T06:43:02.760Z,34.13
2019-01-21T06:46:48.197Z,32.87
2019-01-21T06:50:26.681Z,34.63
2019-01-21T06:54:25.801Z,36.73
2019-01-21T06:58:16.436Z,38.40
2019-01-21T07:01:44.069Z,35.93
2019-01-21T07:05:39.702Z,36.37
2019-01-21T07:09:22.248Z,37.00
2019-01-21T07:12:48.499Z,36.83
2019-01-21T07:16:21.024Z,37.83
2019-01-21T07:19:48.940Z,36.20
2019-01-21T07:23:36.699Z,45.93
2019-01-21T07:27:09.277Z,37.43
2019-01-21T07:30:52.761Z,36.17
2019-01-21T07:34:36.286Z,37.33
2019-01-21T07:38:04.935Z,39.67
2019-01-21T07:41:24.347Z,41.00
2019-01-21T07:45:04.157Z,37.50
2019-01-21T07:48:33.251Z,36.93
2019-01-21T07:52:13.914Z,40.23
2019-01-21T07:55:59.028Z,39.03
2019-01-21T08:00:12.280Z,52.00
2019-01-21T08:03:49.358Z,41.10
2019-01-21T08:07:38.973Z,36.57
2019-01-21T08:11:36.129Z,37.07
2019-01-21T08:14:54.931Z,37.10
2019-01-21T08:18:41.363Z,39.90
2019-01-21T08:22:20.784Z,35.33
2019-01-21T08:26:13.227Z,35.80
2019-01-21T08:30:00.970Z,38.67
2019-01-21T08:33:46.673Z,37.70
2019-01-21T08:37:28.064Z,41.83
2019-01-21T08:41:30.423Z,47.50
2019-01-21T08:45:02.609Z,42.67
2019-01-21T08:48:46.947Z,37.50
2019-01-21T08:52:46.918Z,44.60
2019-01-21T08:56:29.426Z,37.40
2019-01-21T08:59:51.240Z,50.33
2019-01-21T09:03:28.039Z,41.10
2019-01-21T09:06:45.558Z,44.40
2019-01-21T09:10:15.672Z,40.10
2019-01-21T09:13:47.768Z,35.30
2019-01-21T09:17:13.625Z,43.40
2019-01-21T09:20:45.888Z,44.00
2019-01-21T09:24:37.196Z,49.60
2019-01-21T09:28:29.219Z,41.30
2019-01-21T09:32:07.855Z,34.50
2019-01-21T09:35:51.787Z,40.87
2019-01-21T09:39:58.922Z,41.90
2019-01-21T09:43:15.529Z,39.53
2019-01-21T09:46:51.392Z,42.17
2019-01-21T09:49:43.668Z,40.67
2019-01-21T09:52:30.824Z,40.67
2019-01-21T09:55:23.469Z,42.90
2019-01-21T09:58:13.175Z,49.30
2019-01-21T10:01:03.859Z,43.13
2019-01-21T10:03:55.378Z,43.67
2019-01-21T10:07:11.253Z,40.70
2019-01-21T10:10:26.368Z,42.87
2019-01-21T10:14:16.751Z,42.30
2019-01-21T10:17:43.965Z,47.40
2019-01-21T10:21:22.493Z,42.70
2019-01-21T10:25:07.809Z,44.10
2019-01-21T10:28:48.017Z,39.27
2019-01-21T10:32:37.406Z,44.80
2019-01-21T10:36:15.177Z,44.73
2019-01-21T10:39:51.513Z,40.27
2019-01-21T10:43:35.062Z,41.67
2019-01-21T10:47:28.639Z,41.80
2019-01-21T10:51:01.330Z,48.37
2019-01-21T10:54:32.794Z,37.40
2019-01-21T10:57:46.178Z,44.30
2019-01-21T11:01:38.017Z,42.57
2019-01-21T11:05:26.657Z,39.97
2019-01-21T11:09:17.076Z,43.20
2019-01-21T11:12:37.225Z,43.00
2019-01-21T11:16:08.163Z,44.93
2019-01-21T11:19:44.315Z,42.67
2019-01-21T11:23:22.757Z,44.40
2019-01-21T11:27:18.571Z,40.23
2019-01-21T11:31:04.935Z,38.70
2019-01-21T11:34:55.588Z,46.70
2019-01-21T11:38:50.483Z,45.63
2019-01-21T11:42:26.808Z,45.87
2019-01-21T11:45:57.485Z,44.03
2019-01-21T11:49:44.726Z,40.40
2019-01-21T11:53:02.671Z,44.67
2019-01-21T11:56:34.186Z,46.70
2019-01-21T12:00:21.136Z,42.43
2019-01-21T12:03:55.544Z,46.23
2019-01-21T12:07:36.258Z,45.63
2019-01-21T12:11:21.091Z,40.70
2019-01-21T12:15:31.418Z,44.60
2019-01-21T12:19:19.083Z,45.60
2019-01-21T12:23:03.191Z,45.27
2019-01-21T12:26:52.385Z,46.00
2019-01-21T12:30:34.512Z,44.80
2019-01-21T12:34:00.310Z,46.83
2019-01-21T12:37:15.895Z,48.20
2019-01-21T12:40:46.302Z,41.47
2019-01-21T12:44:43.849Z,43.53
2019-01-21T12:48:01.154Z,39.20
2019-01-21T12:51:33.017Z,48.00
2019-01-21T12:55:04.018Z,46.43
2019-01-21T12:58:31.100Z,45.17
2019-01-21T13:01:37.302Z,45.47
2019-01-21T13:05:09.588Z,42.03
2019-01-21T13:08:49.570Z,47.57
2019-01-21T13:12:18.945Z,43.30
2019-01-21T13:15:55.380Z,42.50
2019-01-21T13:19:59.727Z,42.70
2019-01-21T13:23:12.334Z,42.63
2019-01-21T13:26:33.878Z,45.87
2019-01-21T13:30:06.677Z,42.70
2019-01-21T13:33:32.976Z,46.03
2019-01-21T13:36:54.522Z,48.23
2019-01-21T13:41:05.995Z,46.87
2019-01-21T13:44:57.435Z,45.90
2019-01-21T13:48:43.036Z,42.33
2019-01-21T13:52:28.505Z,44.60
2019-01-21T13:56:36.171Z,45.50
2019-01-21T14:00:18.576Z,44.07
2019-01-21T14:04:20.798Z,44.37
2019-01-21T14:08:12.298Z,43.97
2019-01-21T14:11:39.010Z,43.77
2019-01-21T14:15:53.591Z,45.87
2019-01-21T14:19:18.441Z,47.60
2019-01-21T14:22:55.214Z,43.77
2019-01-21T14:26:39.802Z,43.30
2019-01-21T14:30:31.469Z,47.37
2019-01-21T14:33:43.917Z,42.70
2019-01-21T14:37:35.297Z,46.17
2019-01-21T14:41:32.408Z,42.87
2019-01-21T14:45:04.714Z,46.47
2019-01-21T14:49:04.808Z,45.97
2019-01-21T14:52:59.393Z,45.43
2019-01-21T14:56:13.754Z,41.43
2019-01-21T14:59:52.850Z,43.00
2019-01-21T15:03:47.347Z,44.87
2019-01-21T15:07:08.956Z,43.53
2019-01-21T15:10:59.836Z,44.27
2019-01-21T15:14:19.397Z,42.87
2019-01-21T15:17:44.911Z,44.60
2019-01-21T15:21:22.991Z,44.17
2019-01-21T15:24:48.305Z,45.63
2019-01-21T15:28:27.315Z,42.17
2019-01-21T15:31:43.256Z,43.27
2019-01-21T15:35:38.518Z,44.00
2019-01-21T15:39:34.477Z,44.13
2019-01-21T15:42:49.992Z,41.30
2019-01-21T15:46:34.976Z,43.53
2019-01-21T15:50:02.376Z,49.07
2019-01-21T15:53:24.205Z,48.10
2019-01-21T15:57:28.684Z,41.57
2019-01-21T16:01:07.869Z,46.73
2019-01-21T16:04:40.052Z,45.13
2019-01-21T16:07:59.908Z,48.40
2019-01-21T16:11:45.395Z,45.13
2019-01-21T16:15:00.857Z,47.32
2019-01-21T16:18:36.206Z,44.13
2019-01-21T16:22:33.565Z,48.03
2019-01-21T16:25:44.126Z,48.53
2019-01-21T16:29:32.459Z,51.57
2019-01-21T16:32:30.978Z,59.07
2019-01-21T16:35:55.713Z,53.00
2019-01-21T16:39:51.129Z,47.00
2019-01-21T16:42:41.292Z,44.20
2019-01-21T16:45:31.353Z,43.30
2019-01-21T16:48:21.461Z,49.43
2019-01-21T16:51:12.446Z,46.90
2019-01-21T16:54:02.358Z,45.33
2019-01-21T16:56:52.172Z,47.40
2019-01-21T16:59:41.845Z,46.50
2019-01-21T17:02:31.975Z,44.13
2019-01-21T17:05:22.029Z,48.13
2019-01-21T17:08:12.008Z,44.30
2019-01-21T17:11:01.503Z,42.30
2019-01-21T17:13:51.203Z,42.00
2019-01-21T17:16:41.244Z,39.90
2019-01-21T17:19:31.555Z,48.90
2019-01-21T17:22:20.589Z,46.00
2019-01-21T17:25:10.668Z,43.47
2019-01-21T17:28:00.752Z,43.50
2019-01-21T17:30:51.041Z,42.67
2019-01-21T17:33:41.020Z,43.10
2019-01-21T17:36:30.857Z,47.33
2019-01-21T17:39:20.731Z,43.47
2019-01-21T17:42:10.660Z,41.83
2019-01-21T17:45:01.528Z,43.40
2019-01-21T17:47:52.177Z,45.43
2019-01-21T17:50:42.222Z,46.37
2019-01-21T17:53:32.483Z,45.20
2019-01-21T17:56:22.515Z,48.90
2019-01-21T17:59:12.566Z,46.90
2019-01-21T18:02:02.819Z,44.40
2019-01-21T18:04:53.923Z,44.50
2019-01-21T18:07:44.584Z,45.53
2019-01-21T18:10:34.596Z,47.93
2019-01-21T18:13:24.482Z,47.20
2019-01-21T18:16:14.649Z,46.93
2019-01-21T18:19:04.677Z,54.03
2019-01-21T18:21:54.396Z,44.97
2019-01-21T18:24:44.040Z,41.70
2019-01-21T18:27:34.756Z,41.20
2019-01-21T18:30:27.670Z,38.40
2019-01-21T18:33:17.379Z,41.17
2019-01-21T18:36:06.759Z,39.13
2019-01-21T18:38:56.496Z,37.80
2019-01-21T18:41:46.991Z,37.77
2019-01-21T18:44:36.678Z,37.50
2019-01-21T18:47:26.562Z,36.37
2019-01-21T18:50:16.558Z,37.50
2019-01-21T18:53:06.065Z,36.73
2019-01-21T18:55:56.580Z,38.93
2019-01-21T18:58:47.260Z,36.27
2019-01-21T19:01:37.185Z,40.00
2019-01-21T19:04:27.394Z,40.27
2019-01-21T19:07:16.847Z,38.33
2019-01-21T19:10:09.347Z,40.80
2019-01-21T19:12:59.046Z,37.57
2019-01-21T19:15:49.117Z,38.17
2019-01-21T19:18:39.169Z,36.90
2019-01-21T19:21:29.449Z,39.13
2019-01-21T19:24:19.463Z,38.43
2019-01-21T19:27:09.573Z,38.07
2019-01-21T19:29:59.623Z,34.97
2019-01-21T19:32:50.076Z,37.80
2019-01-21T19:35:40.376Z,47.40
2019-01-21T19:38:30.270Z,52.13
2019-01-21T19:41:20.485Z,50.47
2019-01-21T19:44:10.371Z,37.30
2019-01-21T19:47:00.960Z,41.50
2019-01-21T19:49:51.076Z,37.90
2019-01-21T19:52:41.783Z,38.60
2019-01-21T19:55:42.486Z,48.80
2019-01-21T19:58:32.776Z,41.37
2019-01-21T20:01:23.086Z,40.70
2019-01-21T20:04:13.386Z,42.20
2019-01-21T20:07:02.773Z,41.57
2019-01-21T20:09:52.728Z,42.00
2019-01-21T20:12:42.956Z,39.00
2019-01-21T20:15:32.414Z,44.00
2019-01-21T20:18:22.205Z,56.73
2019-01-21T20:21:12.539Z,50.60
2019-01-21T20:24:02.832Z,48.93
2019-01-21T20:26:52.971Z,46.90
2019-01-21T20:30:31.757Z,48.37
2019-01-21T20:36:48.143Z,46.83
2019-01-21T20:39:38.228Z,48.80
2019-01-21T20:42:41.502Z,45.10
2019-01-21T20:45:37.377Z,44.77
2019-01-21T20:48:27.042Z,43.00
2019-01-21T20:51:16.956Z,45.83
2019-01-21T20:54:06.923Z,42.07
2019-01-21T20:56:57.224Z,40.03
2019-01-21T20:59:46.979Z,39.10
2019-01-21T21:02:36.970Z,39.40
2019-01-21T21:05:27.009Z,39.53
2019-01-21T21:08:17.476Z,38.07
2019-01-21T21:11:07.263Z,37.87
2019-01-21T21:13:57.786Z,40.27
2019-01-21T21:16:49.758Z,41.03
2019-01-21T21:19:40.105Z,40.10
2019-01-21T21:22:30.047Z,37.87
2019-01-21T21:25:21.887Z,39.00
2019-01-21T21:28:13.476Z,37.43
2019-01-21T21:31:04.097Z,36.67
2019-01-21T21:33:54.547Z,36.00
2019-01-21T21:36:45.007Z,36.00
2019-01-21T21:39:35.100Z,37.77
2019-01-21T21:42:25.238Z,35.97
2019-01-21T21:45:17.280Z,37.47
2019-01-21T21:48:07.375Z,35.60
2019-01-21T21:50:57.270Z,36.87
2019-01-21T21:53:47.001Z,37.83
2019-01-21T21:56:36.901Z,36.57
2019-01-21T21:59:26.806Z,35.67
2019-01-21T22:02:16.634Z,36.40
2019-01-21T22:05:08.249Z,39.10
2019-01-21T22:07:57.857Z,35.30
2019-01-21T22:10:47.978Z,36.90
2019-01-21T22:13:37.904Z,35.30
2019-01-21T22:16:27.794Z,35.20
2019-01-21T22:19:17.763Z,34.57
2019-01-21T22:22:08.128Z,37.97
2019-01-21T22:24:57.685Z,38.63
2019-01-21T22:27:47.769Z,34.20
2019-01-21T22:30:37.646Z,36.80
2019-01-21T22:33:27.286Z,35.20
2019-01-21T22:36:17.113Z,35.70
2019-01-21T22:39:09.156Z,32.50
2019-01-21T22:42:00.018Z,35.80
2019-01-21T22:44:49.832Z,34.77
2019-01-21T22:47:40.403Z,33.57
2019-01-21T22:50:30.831Z,34.50
2019-01-21T22:53:23.505Z,35.83
2019-01-21T22:56:12.250Z,34.03
2019-01-21T22:59:01.951Z,35.93
2019-01-21T23:01:51.932Z,35.60
2019-01-21T23:04:41.992Z,34.20
2019-01-21T23:07:31.940Z,32.37
2019-01-21T23:10:21.842Z,32.10
2019-01-21T23:13:12.080Z,31.47
2019-01-21T23:16:02.373Z,31.80
2019-01-21T23:18:52.328Z,32.13
2019-01-21T23:21:41.995Z,30.53
2019-01-21T23:24:31.626Z,30.13
2019-01-21T23:27:22.063Z,26.97
2019-01-21T23:30:14.206Z,26.47
2019-01-21T23:33:04.457Z,32.03
2019-01-21T23:35:54.719Z,30.93
2019-01-21T23:38:44.867Z,30.47
2019-01-21T23:41:35.139Z,30.50
2019-01-21T23:44:25.488Z,31.23
2019-01-21T23:47:15.189Z,28.43
2019-01-21T23:50:05.799Z,31.60
2019-01-21T23:52:56.286Z,29.33
2019-01-21T23:55:46.776Z,29.17
2019-01-21T23:58:36.613Z,29.70
